createdAt,value
2022-10-16T00:00:43.208Z,100582.19
2022-10-16T00:03:10.347Z,100581.53
2022-10-16T00:05:42.595Z,100581.44
2022-10-16T00:08:10.919Z,100585.41
2022-10-16T00:10:37.655Z,100589.19
2022-10-16T00:13:04.950Z,100583.28
2022-10-16T00:15:34.377Z,100583.56
2022-10-16T00:18:00.946Z,100590.16
2022-10-16T00:20:27.550Z,100593.16
2022-10-16T00:22:54.109Z,100593.97
2022-10-16T00:25:20.694Z,100584.97
2022-10-16T00:27:47.282Z,100589.22
2022-10-16T00:30:13.857Z,100587.91
2022-10-16T00:32:40.432Z,100590.22
2022-10-16T00:35:07.217Z,100589.81
2022-10-16T00:37:33.794Z,100592.44
2022-10-16T00:40:00.408Z,100607.78
2022-10-16T00:42:27.294Z,100599.56
2022-10-16T00:44:56.869Z,100600.81
2022-10-16T00:47:36.354Z,100606.97
2022-10-16T00:50:28.842Z,100611.50
2022-10-16T00:52:56.445Z,100602.94
2022-10-16T00:55:23.768Z,100608.63
2022-10-16T00:57:51.224Z,100610.81
2022-10-16T01:00:27.182Z,100610.06
2022-10-16T01:02:59.882Z,100614.28
2022-10-16T01:06:06.217Z,100611.25
2022-10-16T01:08:58.239Z,100623.78
2022-10-16T01:11:35.032Z,100617.28
2022-10-16T01:14:09.847Z,100618.03
2022-10-16T01:16:47.231Z,100618.13
2022-10-16T01:19:20.661Z,100618.28
2022-10-16T01:21:49.932Z,100622.75
2022-10-16T01:24:27.861Z,100631.31
2022-10-16T01:27:08.496Z,100628.81
2022-10-16T01:30:14.698Z,100628.53
2022-10-16T01:32:47.787Z,100629.41
2022-10-16T01:35:38.632Z,100633.75
2022-10-16T01:38:17.243Z,100633.84
2022-10-16T01:40:54.021Z,100625.69
2022-10-16T01:43:37.595Z,100621.50
2022-10-16T01:46:04.295Z,100625.84
2022-10-16T01:48:33.906Z,100633.91
2022-10-16T01:51:10.331Z,100638.34
2022-10-16T01:53:37.742Z,100634.25
2022-10-16T01:56:09.438Z,100640.44
2022-10-16T01:58:41.473Z,100641.56
2022-10-16T02:01:11.005Z,100641.75
2022-10-16T02:03:41.918Z,100651.78
2022-10-16T02:06:08.965Z,100651.06
2022-10-16T02:08:37.040Z,100644.69
2022-10-16T02:11:03.693Z,100654.25
2022-10-16T02:13:39.138Z,100650.44
2022-10-16T02:16:06.167Z,100655.78
2022-10-16T02:18:33.032Z,100664.66
2022-10-16T02:21:18.536Z,100662.91
2022-10-16T02:23:59.164Z,100658.50
2022-10-16T02:26:32.575Z,100660.91
2022-10-16T02:29:05.860Z,100655.78
2022-10-16T02:31:37.112Z,100660.06
2022-10-16T02:34:06.239Z,100665.97
2022-10-16T02:36:34.841Z,100666.22
2022-10-16T02:39:03.483Z,100669.75
2022-10-16T02:41:30.474Z,100676.66
2022-10-16T02:43:57.079Z,100670.72
2022-10-16T02:46:23.677Z,100669.66
2022-10-16T02:48:50.245Z,100665.63
2022-10-16T02:51:16.911Z,100656.88
2022-10-16T02:53:43.480Z,100660.94
2022-10-16T02:56:10.157Z,100659.56
2022-10-16T02:58:36.854Z,100670.91
2022-10-16T03:01:03.539Z,100675.56
2022-10-16T03:03:30.130Z,100671.25
2022-10-16T03:05:56.772Z,100674.81
2022-10-16T03:08:23.358Z,100662.56
2022-10-16T03:10:50.705Z,100668.91
2022-10-16T03:13:17.275Z,100666.16
2022-10-16T03:15:44.802Z,100683.94
2022-10-16T03:18:11.455Z,100682.34
2022-10-16T03:20:38.070Z,100681.56
2022-10-16T03:23:04.646Z,100682.56
2022-10-16T03:25:31.295Z,100684.19
2022-10-16T03:27:57.874Z,100692.41
2022-10-16T03:30:24.445Z,100691.06
2022-10-16T03:32:51.080Z,100688.47
2022-10-16T03:35:17.633Z,100694.31
2022-10-16T03:37:44.206Z,100702.28
2022-10-16T03:40:11.198Z,100699.75
2022-10-16T03:42:37.797Z,100702.09
2022-10-16T03:45:05.263Z,100709.38
2022-10-16T03:47:31.926Z,100709.72
2022-10-16T03:49:58.538Z,100701.66
2022-10-16T03:52:25.235Z,100711.47
2022-10-16T03:54:52.207Z,100710.41
2022-10-16T03:57:19.065Z,100720.84
2022-10-16T03:59:45.713Z,100718.16
2022-10-16T04:02:12.322Z,100720.03
2022-10-16T04:04:39.416Z,100726.06
2022-10-16T04:07:06.084Z,100724.94
2022-10-16T04:09:32.716Z,100716.09
2022-10-16T04:11:59.377Z,100725.81
2022-10-16T04:14:25.964Z,100726.09
2022-10-16T04:16:52.604Z,100718.41
2022-10-16T04:19:19.156Z,100724.53
2022-10-16T04:21:45.815Z,100726.84
2022-10-16T04:24:12.454Z,100726.13
2022-10-16T04:26:39.389Z,100730.44
2022-10-16T04:29:06.012Z,100725.31
2022-10-16T04:31:32.677Z,100723.75
2022-10-16T04:33:59.251Z,100714.91
2022-10-16T04:36:28.416Z,100719.34
2022-10-16T04:38:55.932Z,100718.56
2022-10-16T04:41:22.839Z,100718.47
2022-10-16T04:43:49.523Z,100720.31
2022-10-16T04:46:16.126Z,100735.41
2022-10-16T04:48:42.711Z,100739.78
2022-10-16T04:51:09.321Z,100733.81
2022-10-16T04:53:35.906Z,100744.41
2022-10-16T04:56:02.493Z,100743.59
2022-10-16T04:58:29.137Z,100742.69
2022-10-16T05:00:55.775Z,100755.63
2022-10-16T05:03:22.544Z,100753.31
2022-10-16T05:05:49.202Z,100755.66
2022-10-16T05:08:17.247Z,100759.38
2022-10-16T05:10:44.719Z,100769.03
2022-10-16T05:13:11.636Z,100767.94
2022-10-16T05:15:38.296Z,100761.88
2022-10-16T05:18:05.023Z,100764.59
2022-10-16T05:20:31.697Z,100760.13
2022-10-16T05:22:58.348Z,100758.50
2022-10-16T05:25:25.291Z,100763.94
2022-10-16T05:27:51.867Z,100764.84
2022-10-16T05:30:19.092Z,100768.28
2022-10-16T05:32:50.064Z,100772.63
2022-10-16T05:35:18.159Z,100772.50
2022-10-16T05:37:44.936Z,100773.28
2022-10-16T05:40:12.114Z,100779.75
2022-10-16T05:42:38.679Z,100782.34
2022-10-16T05:45:07.176Z,100786.50
2022-10-16T05:47:33.900Z,100791.69
2022-10-16T05:50:00.481Z,100792.63
2022-10-16T05:52:28.370Z,100786.59
2022-10-16T05:54:54.953Z,100789.41
2022-10-16T05:57:21.515Z,100790.03
2022-10-16T05:59:48.126Z,100794.31
2022-10-16T06:02:17.347Z,100799.69
2022-10-16T06:04:43.932Z,100800.59
2022-10-16T06:07:10.502Z,100798.72
2022-10-16T06:09:37.157Z,100806.69
2022-10-16T06:12:03.975Z,100812.63
2022-10-16T06:14:30.605Z,100811.88
2022-10-16T06:16:57.189Z,100812.06
2022-10-16T06:19:23.987Z,100817.13
2022-10-16T06:21:50.646Z,100812.00
2022-10-16T06:24:17.244Z,100820.66
2022-10-16T06:26:43.864Z,100821.38
2022-10-16T06:29:10.471Z,100820.22
2022-10-16T06:31:37.133Z,100822.75
2022-10-16T06:34:03.897Z,100824.81
2022-10-16T06:36:30.458Z,100823.06
2022-10-16T06:38:57.498Z,100826.75
2022-10-16T06:41:24.515Z,100834.38
2022-10-16T06:43:51.191Z,100853.59
2022-10-16T06:46:20.910Z,100856.53
2022-10-16T06:48:47.997Z,100863.16
2022-10-16T06:51:18.300Z,100862.75
2022-10-16T06:54:04.024Z,100860.31
2022-10-16T06:56:33.720Z,100858.84
2022-10-16T06:59:01.252Z,100858.66
2022-10-16T07:01:28.762Z,100870.25
2022-10-16T07:03:55.454Z,100874.72
2022-10-16T07:06:25.423Z,100881.91
2022-10-16T07:08:52.157Z,100883.22
2022-10-16T07:11:23.773Z,100886.75
2022-10-16T07:13:55.008Z,100886.03
2022-10-16T07:16:29.034Z,100879.38
2022-10-16T07:19:00.660Z,100899.66
2022-10-16T07:21:30.796Z,100894.09
2022-10-16T07:23:59.729Z,100890.78
2022-10-16T07:26:27.677Z,100894.31
2022-10-16T07:28:54.294Z,100897.25
2022-10-16T07:31:21.618Z,100892.97
2022-10-16T07:33:49.105Z,100900.88
2022-10-16T07:36:17.147Z,100907.88
2022-10-16T07:38:44.270Z,100910.72
2022-10-16T07:41:16.902Z,100917.75
2022-10-16T07:43:48.753Z,100925.84
2022-10-16T07:46:15.604Z,100928.56
2022-10-16T07:48:42.203Z,100924.28
2022-10-16T07:51:08.971Z,100932.16
2022-10-16T07:53:35.614Z,100933.63
2022-10-16T07:56:05.624Z,100934.28
2022-10-16T07:58:36.074Z,100937.22
2022-10-16T08:01:05.876Z,100941.69
2022-10-16T08:03:32.504Z,100947.88
2022-10-16T08:05:59.909Z,100942.81
2022-10-16T08:08:26.719Z,100938.91
2022-10-16T08:10:53.703Z,100941.47
2022-10-16T08:13:20.288Z,100940.78
2022-10-16T08:15:47.425Z,100941.81
2022-10-16T08:18:15.501Z,100935.97
2022-10-16T08:20:43.420Z,100948.38
2022-10-16T08:23:13.662Z,100941.38
2022-10-16T08:25:40.961Z,100945.97
2022-10-16T08:28:09.598Z,100943.56
2022-10-16T08:30:36.470Z,100951.72
2022-10-16T08:33:03.442Z,100945.56
2022-10-16T08:35:30.040Z,100957.13
2022-10-16T08:37:56.685Z,100960.41
2022-10-16T08:40:28.706Z,100963.44
2022-10-16T08:43:32.844Z,100974.25
2022-10-16T08:46:08.465Z,100965.25
2022-10-16T08:48:48.134Z,100968.75
2022-10-16T08:51:25.547Z,100964.13
2022-10-16T08:53:58.002Z,100973.22
2022-10-16T08:56:26.183Z,100972.91
2022-10-16T08:58:58.040Z,100965.78
2022-10-16T09:01:44.202Z,100968.56
2022-10-16T09:04:59.877Z,100968.22
2022-10-16T09:07:42.841Z,100960.91
2022-10-16T09:10:58.144Z,100975.34
2022-10-16T09:13:29.731Z,100971.03
2022-10-16T09:16:20.233Z,100973.75
2022-10-16T09:18:54.958Z,100968.41
2022-10-16T09:21:28.386Z,100967.84
2022-10-16T09:23:59.377Z,100980.91
2022-10-16T09:26:26.133Z,100975.84
2022-10-16T09:28:54.043Z,100975.63
2022-10-16T09:31:22.505Z,100977.28
2022-10-16T09:34:00.336Z,100971.75
2022-10-16T09:36:29.676Z,100979.41
2022-10-16T09:39:07.911Z,100969.19
2022-10-16T09:41:43.484Z,100975.13
2022-10-16T09:44:32.625Z,100964.56
2022-10-16T09:47:14.144Z,100965.13
2022-10-16T09:49:52.490Z,100968.09
2022-10-16T09:52:20.299Z,100971.44
2022-10-16T09:54:56.251Z,100980.72
2022-10-16T09:57:24.383Z,100978.19
2022-10-16T09:59:56.233Z,100980.44
2022-10-16T10:02:37.731Z,100984.66
2022-10-16T10:05:06.772Z,100986.53
2022-10-16T10:07:39.224Z,100978.44
2022-10-16T10:10:06.786Z,100981.78
2022-10-16T10:12:34.866Z,100987.50
2022-10-16T10:15:12.079Z,100984.19
2022-10-16T10:17:58.793Z,100984.44
2022-10-16T10:20:30.810Z,100977.78
2022-10-16T10:22:58.097Z,100978.97
2022-10-16T10:25:56.539Z,100971.41
2022-10-16T10:28:25.829Z,100968.63
2022-10-16T10:31:20.082Z,100956.34
2022-10-16T10:34:08.527Z,100957.66
2022-10-16T10:36:38.784Z,100956.84
2022-10-16T10:39:10.136Z,100961.19
2022-10-16T10:41:58.676Z,100964.28
2022-10-16T10:44:58.474Z,100959.38
2022-10-16T10:47:52.981Z,100955.13
2022-10-16T10:50:31.608Z,100958.22
2022-10-16T10:53:13.716Z,100961.63
2022-10-16T10:55:45.883Z,100959.44
2022-10-16T10:59:03.202Z,100955.88
2022-10-16T11:01:56.093Z,100954.97
2022-10-16T11:04:33.108Z,100951.97
2022-10-16T11:07:15.800Z,100948.22
2022-10-16T11:09:52.462Z,100941.13
2022-10-16T11:12:31.569Z,100948.44
2022-10-16T11:15:19.404Z,100948.50
2022-10-16T11:17:47.231Z,100941.94
2022-10-16T11:20:16.484Z,100946.78
2022-10-16T11:23:12.603Z,100950.56
2022-10-16T11:25:40.468Z,100945.38
2022-10-16T11:28:30.896Z,100940.06
2022-10-16T11:31:03.816Z,100933.94
2022-10-16T11:33:44.817Z,100927.94
2022-10-16T11:36:34.675Z,100935.34
2022-10-16T11:39:01.214Z,100939.34
2022-10-16T11:41:38.860Z,100937.00
2022-10-16T11:44:05.358Z,100931.13
2022-10-16T11:46:47.799Z,100934.44
2022-10-16T11:49:28.067Z,100932.81
2022-10-16T11:52:20.846Z,100930.84
2022-10-16T11:55:10.720Z,100935.06
2022-10-16T11:58:04.905Z,100932.38
2022-10-16T12:00:58.819Z,100927.69
2022-10-16T12:03:44.917Z,100930.72
2022-10-16T12:06:51.052Z,100928.66
2022-10-16T12:09:32.386Z,100931.25
2022-10-16T12:11:59.881Z,100932.69
2022-10-16T12:14:29.488Z,100925.38
2022-10-16T12:17:23.928Z,100927.28
2022-10-16T12:20:21.411Z,100925.38
2022-10-16T12:22:54.366Z,100918.47
2022-10-16T12:25:32.265Z,100915.53
2022-10-16T12:28:06.816Z,100913.13
2022-10-16T12:30:36.533Z,100917.31
2022-10-16T12:33:23.623Z,100913.75
2022-10-16T12:35:51.329Z,100913.16
2022-10-16T12:38:25.505Z,100915.09
2022-10-16T12:41:06.620Z,100905.69
2022-10-16T12:43:33.135Z,100906.31
2022-10-16T12:46:04.086Z,100911.03
2022-10-16T12:48:48.638Z,100911.03
2022-10-16T12:51:26.067Z,100905.19
2022-10-16T12:54:02.300Z,100912.22
2022-10-16T12:57:09.425Z,100909.25
2022-10-16T12:59:38.729Z,100914.59
2022-10-16T13:02:42.703Z,100916.56
2022-10-16T13:05:30.625Z,100916.84
2022-10-16T13:08:01.048Z,100912.00
2022-10-16T13:10:46.386Z,100913.47
2022-10-16T13:13:34.188Z,100916.22
2022-10-16T13:16:22.723Z,100919.06
2022-10-16T13:19:09.071Z,100916.34
2022-10-16T13:21:50.333Z,100915.91
2022-10-16T13:24:28.983Z,100915.31
2022-10-16T13:26:55.510Z,100921.50
2022-10-16T13:29:23.672Z,100925.78
2022-10-16T13:31:50.882Z,100916.03
2022-10-16T13:34:21.601Z,100930.56
2022-10-16T13:36:51.062Z,100928.75
2022-10-16T13:39:28.350Z,100922.63
2022-10-16T13:42:28.441Z,100934.50
2022-10-16T13:44:57.325Z,100936.25
2022-10-16T13:47:29.893Z,100942.66
2022-10-16T13:50:06.450Z,100941.97
2022-10-16T13:52:33.630Z,100941.19
2022-10-16T13:55:02.119Z,100935.88
2022-10-16T13:57:29.728Z,100943.91
2022-10-16T13:59:56.454Z,100940.72
2022-10-16T14:02:36.188Z,100943.66
2022-10-16T14:05:05.329Z,100946.75
2022-10-16T14:07:34.366Z,100936.75
2022-10-16T14:10:21.323Z,100947.09
2022-10-16T14:12:56.729Z,100942.16
2022-10-16T14:15:23.622Z,100942.44
2022-10-16T14:17:52.005Z,100943.38
2022-10-16T14:20:19.618Z,100939.44
2022-10-16T14:22:46.279Z,100946.13
2022-10-16T14:25:29.400Z,100947.88
2022-10-16T14:28:05.914Z,100934.38
2022-10-16T14:30:37.019Z,100939.22
2022-10-16T14:33:06.924Z,100938.78
2022-10-16T14:35:39.678Z,100941.63
2022-10-16T14:38:20.199Z,100944.88
2022-10-16T14:40:50.712Z,100940.59
2022-10-16T14:43:23.822Z,100939.19
2022-10-16T14:45:56.925Z,100942.28
2022-10-16T14:48:24.651Z,100946.59
2022-10-16T14:50:51.404Z,100952.97
2022-10-16T14:53:17.987Z,100948.69
2022-10-16T14:55:45.567Z,100947.84
2022-10-16T14:58:23.773Z,100953.06
2022-10-16T15:00:50.496Z,100948.41
2022-10-16T15:03:17.309Z,100945.13
2022-10-16T15:05:44.070Z,100945.22
2022-10-16T15:08:10.670Z,100945.22
2022-10-16T15:10:41.632Z,100950.50
2022-10-16T15:13:15.173Z,100941.28
2022-10-16T15:15:46.334Z,100945.34
2022-10-16T15:18:13.182Z,100957.28
2022-10-16T15:20:40.227Z,100951.66
2022-10-16T15:23:19.186Z,100958.91
2022-10-16T15:25:52.918Z,100960.75
2022-10-16T15:28:21.030Z,100963.75
2022-10-16T15:30:50.737Z,100973.63
2022-10-16T15:33:22.848Z,100967.72
2022-10-16T15:35:51.568Z,100980.31
2022-10-16T15:38:19.958Z,100973.06
2022-10-16T15:40:47.308Z,100979.56
2022-10-16T15:43:13.912Z,100984.44
2022-10-16T15:45:40.608Z,100987.88
2022-10-16T15:48:09.366Z,100981.91
2022-10-16T15:50:38.838Z,100980.19
2022-10-16T15:53:05.503Z,100986.84
2022-10-16T15:55:32.083Z,100979.66
2022-10-16T15:57:58.728Z,100976.88
2022-10-16T16:00:25.361Z,100979.22
2022-10-16T16:02:55.460Z,100986.25
2022-10-16T16:05:23.121Z,100986.94
2022-10-16T16:07:50.662Z,100987.38
2022-10-16T16:10:17.889Z,100996.31
2022-10-16T16:12:47.287Z,100991.78
2022-10-16T16:15:13.870Z,101009.22
2022-10-16T16:17:40.475Z,101007.19
2022-10-16T16:20:07.736Z,101013.72
2022-10-16T16:22:34.380Z,101021.84
2022-10-16T16:25:00.977Z,101021.09
2022-10-16T16:27:27.786Z,101021.53
2022-10-16T16:29:54.520Z,101032.97
2022-10-16T16:32:21.359Z,101036.47
2022-10-16T16:34:48.125Z,101039.69
2022-10-16T16:37:14.826Z,101041.78
2022-10-16T16:43:14.049Z,101046.88
2022-10-16T16:45:40.621Z,101046.53
2022-10-16T16:48:07.232Z,101052.19
2022-10-16T16:50:37.579Z,101058.22
2022-10-16T16:53:04.566Z,101063.84
2022-10-16T16:55:31.157Z,101062.50
2022-10-16T16:57:57.740Z,101072.28
2022-10-16T17:00:24.438Z,101074.75
2022-10-16T17:02:51.243Z,101069.50
2022-10-16T17:05:18.906Z,101080.13
2022-10-16T17:07:45.520Z,101078.25
2022-10-16T17:10:12.092Z,101089.22
2022-10-16T17:12:38.680Z,101085.44
2022-10-16T17:15:05.636Z,101090.81
2022-10-16T17:17:32.200Z,101082.25
2022-10-16T17:19:58.794Z,101091.47
2022-10-16T17:22:26.031Z,101095.25
2022-10-16T17:24:52.908Z,101096.34
2022-10-16T17:27:19.494Z,101101.78
2022-10-16T17:29:46.125Z,101097.16
2022-10-16T17:32:12.714Z,101110.09
2022-10-16T17:34:39.271Z,101101.22
2022-10-16T17:37:05.837Z,101112.22
2022-10-16T17:39:32.397Z,101111.53
2022-10-16T17:41:59.021Z,101108.97
2022-10-16T17:44:25.596Z,101118.28
2022-10-16T17:46:56.516Z,101122.81
2022-10-16T17:51:54.791Z,101134.28
2022-10-16T17:54:21.533Z,101125.53
2022-10-16T17:56:48.146Z,101134.66
2022-10-16T17:59:15.075Z,101134.91
2022-10-16T18:01:42.015Z,101140.16
2022-10-16T18:04:12.226Z,101139.44
2022-10-16T18:06:40.349Z,101138.59
2022-10-16T18:09:09.140Z,101143.88
2022-10-16T18:11:35.761Z,101145.44
2022-10-16T18:14:02.455Z,101149.50
2022-10-16T18:16:30.279Z,101143.75
2022-10-16T18:18:58.033Z,101147.75
2022-10-16T18:21:26.003Z,101145.31
2022-10-16T18:23:52.672Z,101150.06
2022-10-16T18:26:20.484Z,101146.94
2022-10-16T18:28:47.924Z,101154.06
2022-10-16T18:31:17.225Z,101148.28
2022-10-16T18:33:46.637Z,101145.88
2022-10-16T18:36:21.474Z,101152.19
2022-10-16T18:38:48.196Z,101150.88
2022-10-16T18:41:15.007Z,101154.97
2022-10-16T18:43:41.662Z,101155.56
2022-10-16T18:46:58.752Z,101160.44
2022-10-16T18:49:26.057Z,101164.59
2022-10-16T18:51:52.651Z,101161.19
2022-10-16T18:54:19.227Z,101166.78
2022-10-16T18:56:45.850Z,101168.50
2022-10-16T18:59:12.493Z,101168.75
2022-10-16T19:01:39.926Z,101171.09
2022-10-16T19:04:08.939Z,101173.09
2022-10-16T19:06:38.886Z,101178.13
2022-10-16T19:09:06.091Z,101171.47
2022-10-16T19:11:34.139Z,101177.88
2022-10-16T19:14:03.775Z,101177.13
2022-10-16T19:16:33.227Z,101179.00
2022-10-16T19:19:02.224Z,101186.72
2022-10-16T19:21:29.650Z,101180.56
2022-10-16T19:24:01.262Z,101190.88
2022-10-16T19:26:29.120Z,101180.34
2022-10-16T19:28:58.167Z,101175.72
2022-10-16T19:31:27.143Z,101185.59
2022-10-16T19:33:56.704Z,101182.53
2022-10-16T19:36:28.353Z,101191.09
2022-10-16T19:38:57.979Z,101188.47
2022-10-16T19:41:25.655Z,101185.84
2022-10-16T19:43:53.771Z,101181.69
2022-10-16T19:46:23.022Z,101197.19
2022-10-16T19:48:54.161Z,101198.16
2022-10-16T19:51:20.790Z,101204.09
2022-10-16T19:53:48.414Z,101208.28
2022-10-16T19:56:18.088Z,101207.75
2022-10-16T19:58:45.959Z,101208.50
2022-10-16T20:01:14.736Z,101212.59
2022-10-16T20:03:43.580Z,101212.44
2022-10-16T20:06:10.226Z,101215.34
2022-10-16T20:08:38.396Z,101210.66
2022-10-16T20:11:06.967Z,101224.06
2022-10-16T20:13:36.206Z,101219.59
2022-10-16T20:16:05.922Z,101223.38
2022-10-16T20:18:33.265Z,101222.16
2022-10-16T20:20:59.925Z,101238.72
2022-10-16T20:23:27.098Z,101241.66
2022-10-16T20:25:53.676Z,101252.31
2022-10-16T20:28:22.303Z,101246.16
2022-10-16T20:30:50.347Z,101256.09
2022-10-16T20:33:17.808Z,101257.69
2022-10-16T20:35:46.964Z,101254.31
2022-10-16T20:38:15.958Z,101260.53
2022-10-16T20:40:47.178Z,101260.91
2022-10-16T20:43:18.016Z,101267.94
2022-10-16T20:45:46.517Z,101277.88
2022-10-16T20:48:14.145Z,101271.72
2022-10-16T20:50:41.812Z,101274.81
2022-10-16T20:53:09.076Z,101275.03
2022-10-16T20:55:37.374Z,101278.50
2022-10-16T20:58:05.368Z,101284.91
2022-10-16T21:00:32.069Z,101284.09
2022-10-16T21:02:59.878Z,101286.75
2022-10-16T21:05:26.577Z,101284.16
2022-10-16T21:07:53.148Z,101290.47
2022-10-16T21:10:19.769Z,101290.28
2022-10-16T21:12:46.335Z,101291.25
2022-10-16T21:15:15.398Z,101294.63
2022-10-16T21:17:42.594Z,101299.44
2022-10-16T21:20:09.591Z,101304.66
2022-10-16T21:22:36.615Z,101311.13
2022-10-16T21:25:03.563Z,101297.56
2022-10-16T21:27:30.167Z,101304.00
2022-10-16T21:29:56.746Z,101304.09
2022-10-16T21:32:23.364Z,101312.78
2022-10-16T21:34:49.944Z,101315.09
2022-10-16T21:37:16.515Z,101314.19
2022-10-16T21:39:43.178Z,101306.75
2022-10-16T21:42:14.708Z,101311.78
2022-10-16T21:44:41.301Z,101311.69
2022-10-16T21:47:07.870Z,101311.66
2022-10-16T21:49:34.445Z,101314.91
2022-10-16T21:52:02.137Z,101310.25
2022-10-16T21:54:28.784Z,101311.59
2022-10-16T21:56:55.500Z,101307.16
2022-10-16T21:59:22.194Z,101313.22
2022-10-16T22:01:48.892Z,101314.88
2022-10-16T22:04:16.814Z,101317.66
2022-10-16T22:06:43.532Z,101315.03
2022-10-16T22:09:10.789Z,101309.78
2022-10-16T22:11:38.181Z,101319.25
2022-10-16T22:14:08.003Z,101322.56
2022-10-16T22:16:35.530Z,101323.28
2022-10-16T22:19:03.546Z,101327.81
2022-10-16T22:21:30.559Z,101332.13
2022-10-16T22:23:58.657Z,101339.81
2022-10-16T22:26:25.274Z,101328.38
2022-10-16T22:28:52.169Z,101333.25
2022-10-16T22:31:18.803Z,101330.91
2022-10-16T22:33:45.418Z,101350.44
2022-10-16T22:36:14.484Z,101330.94
2022-10-16T22:38:41.355Z,101337.50
2022-10-16T22:41:11.480Z,101335.59
2022-10-16T22:43:40.924Z,101338.13
2022-10-16T22:46:09.214Z,101338.03
2022-10-16T22:48:36.424Z,101341.41
2022-10-16T22:51:04.295Z,101342.19
2022-10-16T22:53:31.472Z,101341.28
2022-10-16T22:55:58.242Z,101348.41
2022-10-16T22:58:25.328Z,101350.34
2022-10-16T23:00:52.439Z,101356.50
2022-10-16T23:03:19.556Z,101362.25
2022-10-16T23:05:46.206Z,101367.03
2022-10-16T23:08:12.966Z,101370.50
2022-10-16T23:10:41.945Z,101372.50
2022-10-16T23:13:08.800Z,101373.91
2022-10-16T23:15:39.528Z,101373.94
2022-10-16T23:18:06.430Z,101382.75
2022-10-16T23:20:33.132Z,101380.28
2022-10-16T23:22:59.979Z,101380.47
2022-10-16T23:25:26.578Z,101378.53
2022-10-16T23:27:56.553Z,101380.03
2022-10-16T23:30:23.237Z,101382.88
2022-10-16T23:32:49.874Z,101377.72
2022-10-16T23:35:16.472Z,101385.25
2022-10-16T23:37:43.050Z,101383.78
2022-10-16T23:40:10.100Z,101383.09
2022-10-16T23:42:36.707Z,101390.81
2022-10-16T23:45:03.814Z,101395.47
2022-10-16T23:47:30.741Z,101397.91
2022-10-16T23:49:57.422Z,101394.50
2022-10-16T23:52:24.080Z,101401.50
2022-10-16T23:54:50.654Z,101401.66
2022-10-16T23:57:17.237Z,101395.59
2022-10-16T23:59:43.827Z,101404.25
